sensor_id;sensor_type;location;lat;lon;timestamp;pressure;altitude;pressure_sealevel;temperature;humidity
62946;BME280;52164;52.212;-1.010;2023-02-13T00:00:47;102602.20;;;6.91;71.62
62946;BME280;52164;52.212;-1.010;2023-02-13T00:03:12;102603.38;;;6.88;71.68
62946;BME280;52164;52.212;-1.010;2023-02-13T00:05:38;102604.03;;;6.87;71.64
62946;BME280;52164;52.212;-1.010;2023-02-13T00:08:06;102600.53;;;6.85;71.72
62946;BME280;52164;52.212;-1.010;2023-02-13T00:10:31;102599.54;;;6.83;71.79
62946;BME280;52164;52.212;-1.010;2023-02-13T00:12:57;102597.17;;;6.81;71.92
62946;BME280;52164;52.212;-1.010;2023-02-13T00:15:22;102597.64;;;6.80;71.92
62946;BME280;52164;52.212;-1.010;2023-02-13T00:17:47;102600.27;;;6.79;72.17
62946;BME280;52164;52.212;-1.010;2023-02-13T00:20:13;102600.63;;;6.80;71.97
62946;BME280;52164;52.212;-1.010;2023-02-13T00:22:38;102598.90;;;6.80;71.90
62946;BME280;52164;52.212;-1.010;2023-02-13T00:25:04;102596.63;;;6.81;71.85
62946;BME280;52164;52.212;-1.010;2023-02-13T00:27:30;102593.82;;;6.82;72.14
62946;BME280;52164;52.212;-1.010;2023-02-13T00:29:55;102589.29;;;6.83;71.97
62946;BME280;52164;52.212;-1.010;2023-02-13T00:32:20;102588.11;;;6.85;72.23
62946;BME280;52164;52.212;-1.010;2023-02-13T00:34:46;102583.65;;;6.88;72.22
62946;BME280;52164;52.212;-1.010;2023-02-13T00:37:11;102586.27;;;6.91;72.16
62946;BME280;52164;52.212;-1.010;2023-02-13T00:39:36;102583.53;;;6.93;72.26
62946;BME280;52164;52.212;-1.010;2023-02-13T00:42:01;102588.75;;;6.95;72.06
62946;BME280;52164;52.212;-1.010;2023-02-13T00:44:27;102589.70;;;6.96;71.89
62946;BME280;52164;52.212;-1.010;2023-02-13T00:46:52;102585.38;;;6.95;71.95
62946;BME280;52164;52.212;-1.010;2023-02-13T00:49:17;102585.72;;;6.94;71.84
62946;BME280;52164;52.212;-1.010;2023-02-13T00:51:43;102583.14;;;6.96;72.06
62946;BME280;52164;52.212;-1.010;2023-02-13T00:54:08;102579.77;;;6.96;72.08
62946;BME280;52164;52.212;-1.010;2023-02-13T00:56:33;102580.67;;;6.97;72.10
62946;BME280;52164;52.212;-1.010;2023-02-13T00:58:58;102580.27;;;6.96;71.96
62946;BME280;52164;52.212;-1.010;2023-02-13T01:01:24;102576.59;;;6.93;72.17
62946;BME280;52164;52.212;-1.010;2023-02-13T01:03:49;102577.86;;;6.90;72.16
62946;BME280;52164;52.212;-1.010;2023-02-13T01:06:14;102578.39;;;6.86;72.02
62946;BME280;52164;52.212;-1.010;2023-02-13T01:08:42;102578.64;;;6.83;72.10
62946;BME280;52164;52.212;-1.010;2023-02-13T01:11:08;102577.31;;;6.82;72.05
62946;BME280;52164;52.212;-1.010;2023-02-13T01:13:33;102577.27;;;6.81;72.17
62946;BME280;52164;52.212;-1.010;2023-02-13T01:15:59;102575.46;;;6.80;71.91
62946;BME280;52164;52.212;-1.010;2023-02-13T01:18:24;102577.27;;;6.81;72.11
62946;BME280;52164;52.212;-1.010;2023-02-13T01:20:58;102570.52;;;6.81;72.15
62946;BME280;52164;52.212;-1.010;2023-02-13T01:23:24;102569.19;;;6.82;72.60
62946;BME280;52164;52.212;-1.010;2023-02-13T01:25:49;102563.07;;;6.84;72.51
62946;BME280;52164;52.212;-1.010;2023-02-13T01:28:16;102557.84;;;6.87;72.42
62946;BME280;52164;52.212;-1.010;2023-02-13T01:30:41;102549.05;;;6.88;72.33
62946;BME280;52164;52.212;-1.010;2023-02-13T01:33:06;102551.96;;;6.91;72.26
62946;BME280;52164;52.212;-1.010;2023-02-13T01:35:31;102555.42;;;6.92;72.32
62946;BME280;52164;52.212;-1.010;2023-02-13T01:37:56;102554.74;;;6.93;72.31
62946;BME280;52164;52.212;-1.010;2023-02-13T01:40:22;102554.55;;;6.93;72.22
62946;BME280;52164;52.212;-1.010;2023-02-13T01:42:47;102554.66;;;6.91;72.32
62946;BME280;52164;52.212;-1.010;2023-02-13T01:45:21;102554.58;;;6.89;72.40
62946;BME280;52164;52.212;-1.010;2023-02-13T01:47:50;102552.55;;;6.87;72.33
62946;BME280;52164;52.212;-1.010;2023-02-13T01:52:45;102551.67;;;6.84;72.51
62946;BME280;52164;52.212;-1.010;2023-02-13T01:55:12;102552.08;;;6.81;72.66
62946;BME280;52164;52.212;-1.010;2023-02-13T01:57:38;102552.02;;;6.80;72.78
62946;BME280;52164;52.212;-1.010;2023-02-13T02:00:05;102549.58;;;6.77;72.68
62946;BME280;52164;52.212;-1.010;2023-02-13T02:02:33;102549.86;;;6.76;72.74
62946;BME280;52164;52.212;-1.010;2023-02-13T02:05:01;102553.05;;;6.72;72.86
62946;BME280;52164;52.212;-1.010;2023-02-13T02:07:27;102550.08;;;6.69;73.01
62946;BME280;52164;52.212;-1.010;2023-02-13T02:09:58;102551.02;;;6.67;73.04
62946;BME280;52164;52.212;-1.010;2023-02-13T02:12:28;102546.66;;;6.64;73.28
62946;BME280;52164;52.212;-1.010;2023-02-13T02:14:56;102542.88;;;6.64;73.20
62946;BME280;52164;52.212;-1.010;2023-02-13T02:17:23;102542.33;;;6.63;73.44
62946;BME280;52164;52.212;-1.010;2023-02-13T02:19:53;102540.22;;;6.64;73.45
62946;BME280;52164;52.212;-1.010;2023-02-13T02:25:16;102539.05;;;6.62;73.26
62946;BME280;52164;52.212;-1.010;2023-02-13T02:26:53;102542.32;;;6.63;73.32
62946;BME280;52164;52.212;-1.010;2023-02-13T02:30:16;102536.70;;;6.61;73.49
62946;BME280;52164;52.212;-1.010;2023-02-13T02:32:56;102541.15;;;6.61;73.42
62946;BME280;52164;52.212;-1.010;2023-02-13T02:35:28;102547.27;;;6.63;73.34
62946;BME280;52164;52.212;-1.010;2023-02-13T02:38:01;102541.13;;;6.64;73.64
62946;BME280;52164;52.212;-1.010;2023-02-13T02:40:42;102536.83;;;6.67;73.53
62946;BME280;52164;52.212;-1.010;2023-02-13T02:43:13;102532.52;;;6.69;73.42
62946;BME280;52164;52.212;-1.010;2023-02-13T02:45:47;102535.35;;;6.73;73.40
62946;BME280;52164;52.212;-1.010;2023-02-13T02:48:22;102537.92;;;6.78;73.75
62946;BME280;52164;52.212;-1.010;2023-02-13T02:51:34;102532.30;;;6.83;73.50
62946;BME280;52164;52.212;-1.010;2023-02-13T02:56:24;102524.71;;;6.84;73.36
62946;BME280;52164;52.212;-1.010;2023-02-13T02:58:52;102522.14;;;6.82;73.63
62946;BME280;52164;52.212;-1.010;2023-02-13T03:01:40;102518.05;;;6.82;73.37
62946;BME280;52164;52.212;-1.010;2023-02-13T03:04:27;102519.61;;;6.81;73.27
62946;BME280;52164;52.212;-1.010;2023-02-13T03:07:15;102518.44;;;6.79;73.56
62946;BME280;52164;52.212;-1.010;2023-02-13T03:09:43;102513.28;;;6.75;73.40
62946;BME280;52164;52.212;-1.010;2023-02-13T03:12:38;102513.81;;;6.72;73.55
62946;BME280;52164;52.212;-1.010;2023-02-13T03:15:24;102517.98;;;6.69;73.69
62946;BME280;52164;52.212;-1.010;2023-02-13T03:17:51;102518.26;;;6.68;73.61
62946;BME280;52164;52.212;-1.010;2023-02-13T03:20:53;102517.23;;;6.65;73.42
62946;BME280;52164;52.212;-1.010;2023-02-13T03:24:14;102511.06;;;6.62;73.88
62946;BME280;52164;52.212;-1.010;2023-02-13T03:29:02;102514.16;;;6.57;73.71
62946;BME280;52164;52.212;-1.010;2023-02-13T03:31:53;102512.77;;;6.53;73.95
62946;BME280;52164;52.212;-1.010;2023-02-13T03:34:26;102511.77;;;6.51;73.97
62946;BME280;52164;52.212;-1.010;2023-02-13T03:37:14;102509.77;;;6.50;73.97
62946;BME280;52164;52.212;-1.010;2023-02-13T03:40:02;102511.32;;;6.49;73.99
62946;BME280;52164;52.212;-1.010;2023-02-13T03:42:36;102509.73;;;6.49;73.99
62946;BME280;52164;52.212;-1.010;2023-02-13T03:47:48;102504.67;;;6.51;74.02
62946;BME280;52164;52.212;-1.010;2023-02-13T03:50:15;102508.56;;;6.51;74.08
62946;BME280;52164;52.212;-1.010;2023-02-13T03:53:13;102505.70;;;6.54;74.05
62946;BME280;52164;52.212;-1.010;2023-02-13T03:55:29;102505.27;;;6.56;73.98
62946;BME280;52164;52.212;-1.010;2023-02-13T03:58:16;102506.79;;;6.59;74.27
62946;BME280;52164;52.212;-1.010;2023-02-13T04:01:05;102504.95;;;6.61;73.88
62946;BME280;52164;52.212;-1.010;2023-02-13T04:03:41;102507.52;;;6.62;73.92
62946;BME280;52164;52.212;-1.010;2023-02-13T04:06:10;102507.11;;;6.65;73.97
62946;BME280;52164;52.212;-1.010;2023-02-13T04:08:36;102506.16;;;6.67;74.21
62946;BME280;52164;52.212;-1.010;2023-02-13T04:11:13;102503.32;;;6.67;73.91
62946;BME280;52164;52.212;-1.010;2023-02-13T04:13:44;102500.48;;;6.67;73.94
62946;BME280;52164;52.212;-1.010;2023-02-13T04:16:13;102499.83;;;6.68;74.11
62946;BME280;52164;52.212;-1.010;2023-02-13T04:18:40;102502.84;;;6.68;73.59
62946;BME280;52164;52.212;-1.010;2023-02-13T04:21:06;102506.02;;;6.68;73.87
62946;BME280;52164;52.212;-1.010;2023-02-13T04:23:32;102502.11;;;6.68;73.90
62946;BME280;52164;52.212;-1.010;2023-02-13T04:25:58;102499.62;;;6.64;73.95
62946;BME280;52164;52.212;-1.010;2023-02-13T04:28:25;102505.36;;;6.62;73.91
62946;BME280;52164;52.212;-1.010;2023-02-13T04:30:50;102510.92;;;6.60;73.92
62946;BME280;52164;52.212;-1.010;2023-02-13T04:33:15;102508.80;;;6.56;73.86
62946;BME280;52164;52.212;-1.010;2023-02-13T04:35:41;102507.94;;;6.52;74.13
62946;BME280;52164;52.212;-1.010;2023-02-13T04:38:06;102501.81;;;6.50;73.92
62946;BME280;52164;52.212;-1.010;2023-02-13T04:40:31;102497.98;;;6.48;74.07
62946;BME280;52164;52.212;-1.010;2023-02-13T04:42:57;102496.62;;;6.46;74.10
62946;BME280;52164;52.212;-1.010;2023-02-13T04:45:22;102491.71;;;6.43;73.93
62946;BME280;52164;52.212;-1.010;2023-02-13T04:47:49;102498.04;;;6.42;74.07
62946;BME280;52164;52.212;-1.010;2023-02-13T04:50:14;102497.72;;;6.40;73.95
62946;BME280;52164;52.212;-1.010;2023-02-13T04:52:40;102498.13;;;6.37;74.05
62946;BME280;52164;52.212;-1.010;2023-02-13T04:55:06;102496.96;;;6.35;74.26
62946;BME280;52164;52.212;-1.010;2023-02-13T04:57:31;102496.00;;;6.34;74.00
62946;BME280;52164;52.212;-1.010;2023-02-13T04:59:56;102491.74;;;6.33;74.29
62946;BME280;52164;52.212;-1.010;2023-02-13T05:02:21;102491.02;;;6.33;74.42
62946;BME280;52164;52.212;-1.010;2023-02-13T05:04:47;102489.81;;;6.33;74.27
62946;BME280;52164;52.212;-1.010;2023-02-13T05:07:12;102489.70;;;6.35;74.33
62946;BME280;52164;52.212;-1.010;2023-02-13T05:09:37;102487.05;;;6.35;74.32
62946;BME280;52164;52.212;-1.010;2023-02-13T05:12:02;102483.55;;;6.36;74.51
62946;BME280;52164;52.212;-1.010;2023-02-13T05:14:28;102483.19;;;6.36;74.56
62946;BME280;52164;52.212;-1.010;2023-02-13T05:16:53;102479.68;;;6.37;74.57
62946;BME280;52164;52.212;-1.010;2023-02-13T05:19:18;102477.95;;;6.38;74.48
62946;BME280;52164;52.212;-1.010;2023-02-13T05:21:43;102479.96;;;6.39;74.31
62946;BME280;52164;52.212;-1.010;2023-02-13T05:24:29;102483.36;;;6.40;74.35
62946;BME280;52164;52.212;-1.010;2023-02-13T05:26:54;102483.16;;;6.39;74.30
62946;BME280;52164;52.212;-1.010;2023-02-13T05:29:19;102478.50;;;6.38;74.55
62946;BME280;52164;52.212;-1.010;2023-02-13T05:31:50;102480.58;;;6.37;74.24
62946;BME280;52164;52.212;-1.010;2023-02-13T05:34:16;102477.49;;;6.36;74.53
62946;BME280;52164;52.212;-1.010;2023-02-13T05:36:42;102479.00;;;6.34;74.10
62946;BME280;52164;52.212;-1.010;2023-02-13T05:39:07;102477.80;;;6.31;74.34
62946;BME280;52164;52.212;-1.010;2023-02-13T05:41:33;102480.91;;;6.29;74.28
62946;BME280;52164;52.212;-1.010;2023-02-13T05:43:58;102484.27;;;6.29;74.54
62946;BME280;52164;52.212;-1.010;2023-02-13T05:46:23;102485.05;;;6.27;74.61
62946;BME280;52164;52.212;-1.010;2023-02-13T05:48:49;102488.95;;;6.23;74.35
62946;BME280;52164;52.212;-1.010;2023-02-13T05:51:14;102491.98;;;6.20;74.39
62946;BME280;52164;52.212;-1.010;2023-02-13T05:53:42;102493.10;;;6.17;74.37
62946;BME280;52164;52.212;-1.010;2023-02-13T05:56:07;102499.34;;;6.14;74.40
62946;BME280;52164;52.212;-1.010;2023-02-13T05:58:32;102502.41;;;6.12;74.71
62946;BME280;52164;52.212;-1.010;2023-02-13T06:00:58;102502.59;;;6.09;74.52
62946;BME280;52164;52.212;-1.010;2023-02-13T06:03:24;102500.05;;;6.08;75.04
62946;BME280;52164;52.212;-1.010;2023-02-13T06:05:49;102501.77;;;6.06;75.06
62946;BME280;52164;52.212;-1.010;2023-02-13T06:08:15;102500.96;;;6.05;75.02
62946;BME280;52164;52.212;-1.010;2023-02-13T06:10:40;102501.39;;;6.06;75.11
62946;BME280;52164;52.212;-1.010;2023-02-13T06:13:05;102497.04;;;6.08;75.27
62946;BME280;52164;52.212;-1.010;2023-02-13T06:15:31;102494.47;;;6.09;75.21
62946;BME280;52164;52.212;-1.010;2023-02-13T06:17:57;102496.77;;;6.13;75.21
62946;BME280;52164;52.212;-1.010;2023-02-13T06:20:22;102493.33;;;6.15;75.29
62946;BME280;52164;52.212;-1.010;2023-02-13T06:22:48;102493.43;;;6.17;74.99
62946;BME280;52164;52.212;-1.010;2023-02-13T06:25:13;102490.62;;;6.18;75.06
62946;BME280;52164;52.212;-1.010;2023-02-13T06:27:39;102487.90;;;6.20;75.33
62946;BME280;52164;52.212;-1.010;2023-02-13T06:30:04;102487.83;;;6.22;75.01
62946;BME280;52164;52.212;-1.010;2023-02-13T06:32:29;102488.59;;;6.23;74.76
62946;BME280;52164;52.212;-1.010;2023-02-13T06:34:55;102486.31;;;6.24;74.88
62946;BME280;52164;52.212;-1.010;2023-02-13T06:37:20;102483.48;;;6.24;74.95
62946;BME280;52164;52.212;-1.010;2023-02-13T06:39:45;102482.98;;;6.21;74.89
62946;BME280;52164;52.212;-1.010;2023-02-13T06:42:10;102484.49;;;6.20;75.13
62946;BME280;52164;52.212;-1.010;2023-02-13T06:44:35;102479.41;;;6.16;75.27
62946;BME280;52164;52.212;-1.010;2023-02-13T06:47:01;102485.73;;;6.15;75.38
62946;BME280;52164;52.212;-1.010;2023-02-13T06:49:26;102486.55;;;6.14;75.13
62946;BME280;52164;52.212;-1.010;2023-02-13T06:51:51;102486.25;;;6.11;75.39
62946;BME280;52164;52.212;-1.010;2023-02-13T06:54:19;102487.44;;;6.10;75.18
62946;BME280;52164;52.212;-1.010;2023-02-13T06:56:45;102486.12;;;6.09;75.50
62946;BME280;52164;52.212;-1.010;2023-02-13T06:59:10;102488.70;;;6.07;75.72
62946;BME280;52164;52.212;-1.010;2023-02-13T07:01:35;102488.11;;;6.06;75.53
62946;BME280;52164;52.212;-1.010;2023-02-13T07:04:01;102493.27;;;6.03;75.63
62946;BME280;52164;52.212;-1.010;2023-02-13T07:06:26;102497.52;;;5.99;75.48
62946;BME280;52164;52.212;-1.010;2023-02-13T07:08:51;102508.17;;;5.97;75.32
62946;BME280;52164;52.212;-1.010;2023-02-13T07:11:19;102505.67;;;5.93;75.80
62946;BME280;52164;52.212;-1.010;2023-02-13T07:13:45;102507.42;;;5.93;75.35
62946;BME280;52164;52.212;-1.010;2023-02-13T07:16:10;102499.35;;;5.94;75.77
62946;BME280;52164;52.212;-1.010;2023-02-13T07:18:36;102501.50;;;5.95;75.67
62946;BME280;52164;52.212;-1.010;2023-02-13T07:21:01;102504.79;;;5.96;75.79
62946;BME280;52164;52.212;-1.010;2023-02-13T07:23:27;102504.17;;;5.98;75.64
62946;BME280;52164;52.212;-1.010;2023-02-13T07:25:52;102501.96;;;5.99;76.10
62946;BME280;52164;52.212;-1.010;2023-02-13T07:28:17;102496.09;;;5.99;75.62
62946;BME280;52164;52.212;-1.010;2023-02-13T07:30:43;102494.19;;;5.97;75.59
62946;BME280;52164;52.212;-1.010;2023-02-13T07:33:08;102497.06;;;5.94;75.33
62946;BME280;52164;52.212;-1.010;2023-02-13T07:35:33;102506.24;;;5.91;75.36
62946;BME280;52164;52.212;-1.010;2023-02-13T07:38:00;102505.40;;;5.88;75.84
62946;BME280;52164;52.212;-1.010;2023-02-13T07:40:25;102507.25;;;5.86;75.92
62946;BME280;52164;52.212;-1.010;2023-02-13T07:42:50;102507.88;;;5.85;75.97
62946;BME280;52164;52.212;-1.010;2023-02-13T07:45:16;102514.44;;;5.84;76.13
62946;BME280;52164;52.212;-1.010;2023-02-13T07:47:41;102512.13;;;5.84;75.74
62946;BME280;52164;52.212;-1.010;2023-02-13T07:50:07;102508.42;;;5.81;75.99
62946;BME280;52164;52.212;-1.010;2023-02-13T07:52:33;102508.54;;;5.80;76.19
62946;BME280;52164;52.212;-1.010;2023-02-13T07:54:58;102503.23;;;5.80;76.39
62946;BME280;52164;52.212;-1.010;2023-02-13T07:57:23;102503.04;;;5.79;76.35
62946;BME280;52164;52.212;-1.010;2023-02-13T07:59:49;102502.68;;;5.80;76.15
62946;BME280;52164;52.212;-1.010;2023-02-13T08:02:14;102504.55;;;5.78;75.85
62946;BME280;52164;52.212;-1.010;2023-02-13T08:04:40;102503.14;;;5.78;76.07
62946;BME280;52164;52.212;-1.010;2023-02-13T08:07:06;102503.02;;;5.79;76.02
62946;BME280;52164;52.212;-1.010;2023-02-13T08:09:31;102506.83;;;5.81;75.73
62946;BME280;52164;52.212;-1.010;2023-02-13T08:12:17;102507.13;;;5.83;75.44
62946;BME280;52164;52.212;-1.010;2023-02-13T08:14:42;102507.27;;;5.86;75.64
62946;BME280;52164;52.212;-1.010;2023-02-13T08:17:09;102504.17;;;5.88;75.38
62946;BME280;52164;52.212;-1.010;2023-02-13T08:19:35;102505.52;;;5.90;75.15
62946;BME280;52164;52.212;-1.010;2023-02-13T08:22:00;102507.52;;;5.91;74.68
62946;BME280;52164;52.212;-1.010;2023-02-13T08:24:25;102509.98;;;5.91;74.55
62946;BME280;52164;52.212;-1.010;2023-02-13T08:26:51;102506.04;;;5.90;74.58
62946;BME280;52164;52.212;-1.010;2023-02-13T08:29:16;102505.50;;;5.90;74.77
62946;BME280;52164;52.212;-1.010;2023-02-13T08:31:41;102503.79;;;5.91;74.74
62946;BME280;52164;52.212;-1.010;2023-02-13T08:34:06;102503.45;;;5.91;74.50
62946;BME280;52164;52.212;-1.010;2023-02-13T08:36:32;102508.00;;;5.90;74.45
62946;BME280;52164;52.212;-1.010;2023-02-13T08:38:57;102505.24;;;5.92;74.83
62946;BME280;52164;52.212;-1.010;2023-02-13T08:41:23;102500.73;;;5.94;74.72
62946;BME280;52164;52.212;-1.010;2023-02-13T08:43:48;102503.16;;;5.93;74.38
62946;BME280;52164;52.212;-1.010;2023-02-13T08:46:14;102507.88;;;5.91;74.44
62946;BME280;52164;52.212;-1.010;2023-02-13T08:48:40;102504.04;;;5.93;74.72
62946;BME280;52164;52.212;-1.010;2023-02-13T08:51:06;102494.97;;;5.95;74.74
62946;BME280;52164;52.212;-1.010;2023-02-13T08:53:32;102493.20;;;5.98;74.82
62946;BME280;52164;52.212;-1.010;2023-02-13T08:56:00;102494.05;;;6.01;74.55
62946;BME280;52164;52.212;-1.010;2023-02-13T08:58:25;102496.99;;;6.03;74.52
62946;BME280;52164;52.212;-1.010;2023-02-13T09:00:51;102494.37;;;6.07;74.81
62946;BME280;52164;52.212;-1.010;2023-02-13T09:03:16;102488.87;;;6.14;74.42
62946;BME280;52164;52.212;-1.010;2023-02-13T09:05:42;102482.58;;;6.20;74.34
62946;BME280;52164;52.212;-1.010;2023-02-13T09:08:07;102483.93;;;6.26;74.14
62946;BME280;52164;52.212;-1.010;2023-02-13T09:10:36;102478.53;;;6.31;73.69
62946;BME280;52164;52.212;-1.010;2023-02-13T09:13:01;102477.49;;;6.35;73.87
62946;BME280;52164;52.212;-1.010;2023-02-13T09:15:27;102477.77;;;6.41;73.92
62946;BME280;52164;52.212;-1.010;2023-02-13T09:17:55;102475.86;;;6.49;73.66
62946;BME280;52164;52.212;-1.010;2023-02-13T09:20:20;102472.68;;;6.57;73.69
62946;BME280;52164;52.212;-1.010;2023-02-13T09:22:46;102471.95;;;6.64;73.35
62946;BME280;52164;52.212;-1.010;2023-02-13T09:25:11;102469.52;;;6.69;73.01
62946;BME280;52164;52.212;-1.010;2023-02-13T09:27:36;102472.10;;;6.75;73.05
62946;BME280;52164;52.212;-1.010;2023-02-13T09:30:03;102475.76;;;6.81;72.66
62946;BME280;52164;52.212;-1.010;2023-02-13T09:32:30;102470.09;;;6.85;72.61
62946;BME280;52164;52.212;-1.010;2023-02-13T09:34:55;102466.54;;;6.89;72.31
62946;BME280;52164;52.212;-1.010;2023-02-13T09:37:20;102468.41;;;6.95;72.27
62946;BME280;52164;52.212;-1.010;2023-02-13T09:39:47;102458.66;;;6.99;72.06
62946;BME280;52164;52.212;-1.010;2023-02-13T09:42:28;102465.63;;;7.04;72.27
62946;BME280;52164;52.212;-1.010;2023-02-13T09:44:56;102465.11;;;7.08;72.02
62946;BME280;52164;52.212;-1.010;2023-02-13T09:49:49;102466.56;;;7.21;71.82
62946;BME280;52164;52.212;-1.010;2023-02-13T09:52:16;102461.61;;;7.29;71.78
62946;BME280;52164;52.212;-1.010;2023-02-13T09:54:42;102460.51;;;7.36;71.46
62946;BME280;52164;52.212;-1.010;2023-02-13T09:57:42;102464.86;;;7.43;71.36
62946;BME280;52164;52.212;-1.010;2023-02-13T09:59:57;102468.90;;;7.50;71.35
62946;BME280;52164;52.212;-1.010;2023-02-13T10:05:12;102471.11;;;7.64;70.70
62946;BME280;52164;52.212;-1.010;2023-02-13T10:07:42;102469.50;;;7.68;70.72
62946;BME280;52164;52.212;-1.010;2023-02-13T10:12:24;102473.99;;;7.69;70.61
62946;BME280;52164;52.212;-1.010;2023-02-13T10:14:00;102469.25;;;7.70;70.38
62946;BME280;52164;52.212;-1.010;2023-02-13T10:15:46;102462.98;;;7.73;70.43
62946;BME280;52164;52.212;-1.010;2023-02-13T10:18:15;102457.93;;;7.75;70.26
62946;BME280;52164;52.212;-1.010;2023-02-13T10:20:43;102457.17;;;7.79;70.18
62946;BME280;52164;52.212;-1.010;2023-02-13T10:23:16;102455.78;;;7.83;70.12
62946;BME280;52164;52.212;-1.010;2023-02-13T10:26:46;102450.52;;;7.85;69.89
62946;BME280;52164;52.212;-1.010;2023-02-13T10:28:37;102452.71;;;7.91;69.66
62946;BME280;52164;52.212;-1.010;2023-02-13T10:31:06;102452.91;;;7.96;69.58
62946;BME280;52164;52.212;-1.010;2023-02-13T10:33:33;102451.60;;;7.99;69.46
62946;BME280;52164;52.212;-1.010;2023-02-13T10:36:08;102449.90;;;8.05;69.50
62946;BME280;52164;52.212;-1.010;2023-02-13T10:38:54;102450.70;;;8.11;69.61
62946;BME280;52164;52.212;-1.010;2023-02-13T10:41:32;102454.49;;;8.17;69.79
62946;BME280;52164;52.212;-1.010;2023-02-13T10:46:52;102454.55;;;8.27;69.91
62946;BME280;52164;52.212;-1.010;2023-02-13T10:49:55;102452.67;;;8.33;69.67
62946;BME280;52164;52.212;-1.010;2023-02-13T10:54:38;102453.70;;;8.41;69.20
62946;BME280;52164;52.212;-1.010;2023-02-13T10:57:08;102449.48;;;8.46;69.05
62946;BME280;52164;52.212;-1.010;2023-02-13T11:02:02;102449.89;;;8.48;68.98
62946;BME280;52164;52.212;-1.010;2023-02-13T11:04:34;102451.09;;;8.51;68.90
62946;BME280;52164;52.212;-1.010;2023-02-13T11:07:00;102453.80;;;8.61;68.71
62946;BME280;52164;52.212;-1.010;2023-02-13T11:09:26;102448.67;;;8.76;68.65
62946;BME280;52164;52.212;-1.010;2023-02-13T11:11:52;102442.70;;;8.88;68.68
62946;BME280;52164;52.212;-1.010;2023-02-13T11:14:18;102442.96;;;8.94;68.52
62946;BME280;52164;52.212;-1.010;2023-02-13T11:17:00;102445.93;;;8.93;68.27
62946;BME280;52164;52.212;-1.010;2023-02-13T11:21:54;102438.27;;;8.97;67.88
62946;BME280;52164;52.212;-1.010;2023-02-13T11:24:22;102436.27;;;8.96;68.04
62946;BME280;52164;52.212;-1.010;2023-02-13T11:26:50;102442.94;;;8.89;67.94
62946;BME280;52164;52.212;-1.010;2023-02-13T11:29:23;102437.73;;;8.83;68.00
62946;BME280;52164;52.212;-1.010;2023-02-13T11:31:59;102429.71;;;8.78;68.08
62946;BME280;52164;52.212;-1.010;2023-02-13T11:34:25;102424.64;;;8.81;68.30
62946;BME280;52164;52.212;-1.010;2023-02-13T11:36:52;102422.73;;;8.82;68.23
62946;BME280;52164;52.212;-1.010;2023-02-13T11:39:19;102423.38;;;8.80;68.54
62946;BME280;52164;52.212;-1.010;2023-02-13T11:41:45;102421.47;;;8.72;68.63
62946;BME280;52164;52.212;-1.010;2023-02-13T11:44:27;102420.77;;;8.73;68.65
62946;BME280;52164;52.212;-1.010;2023-02-13T11:46:54;102418.63;;;8.82;68.48
62946;BME280;52164;52.212;-1.010;2023-02-13T11:49:22;102418.70;;;8.88;68.60
62946;BME280;52164;52.212;-1.010;2023-02-13T11:51:49;102418.45;;;8.91;68.16
62946;BME280;52164;52.212;-1.010;2023-02-13T11:54:20;102417.62;;;8.92;67.86
62946;BME280;52164;52.212;-1.010;2023-02-13T11:56:47;102411.98;;;8.99;68.01
62946;BME280;52164;52.212;-1.010;2023-02-13T11:59:13;102407.64;;;9.08;68.16
62946;BME280;52164;52.212;-1.010;2023-02-13T12:01:39;102404.49;;;9.14;68.15
62946;BME280;52164;52.212;-1.010;2023-02-13T12:04:06;102403.64;;;9.20;68.39
62946;BME280;52164;52.212;-1.010;2023-02-13T12:06:38;102392.55;;;9.23;68.32
62946;BME280;52164;52.212;-1.010;2023-02-13T12:09:04;102390.11;;;9.25;68.20
62946;BME280;52164;52.212;-1.010;2023-02-13T12:12:01;102387.69;;;9.32;68.01
62946;BME280;52164;52.212;-1.010;2023-02-13T12:14:17;102390.77;;;9.40;67.90
62946;BME280;52164;52.212;-1.010;2023-02-13T12:16:59;102393.30;;;9.45;67.83
62946;BME280;52164;52.212;-1.010;2023-02-13T12:19:28;102394.85;;;9.59;67.47
62946;BME280;52164;52.212;-1.010;2023-02-13T12:21:59;102386.73;;;9.66;67.48
62946;BME280;52164;52.212;-1.010;2023-02-13T12:26:58;102385.89;;;9.68;67.13
62946;BME280;52164;52.212;-1.010;2023-02-13T12:32:00;102380.23;;;9.59;67.03
62946;BME280;52164;52.212;-1.010;2023-02-13T12:34:34;102373.42;;;9.64;67.39
62946;BME280;52164;52.212;-1.010;2023-02-13T12:37:44;102366.97;;;9.68;67.37
62946;BME280;52164;52.212;-1.010;2023-02-13T12:39:57;102359.34;;;9.74;67.50
62946;BME280;52164;52.212;-1.010;2023-02-13T12:42:31;102358.41;;;9.78;67.11
62946;BME280;52164;52.212;-1.010;2023-02-13T12:47:22;102360.41;;;9.80;67.26
62946;BME280;52164;52.212;-1.010;2023-02-13T12:50:29;102356.50;;;9.80;67.19
62946;BME280;52164;52.212;-1.010;2023-02-13T12:50:34;102359.77;;;9.87;67.51
62946;BME280;52164;52.212;-1.010;2023-02-13T12:53:38;102361.36;;;9.93;66.91
62946;BME280;52164;52.212;-1.010;2023-02-13T12:56:23;102361.08;;;10.00;67.21
62946;BME280;52164;52.212;-1.010;2023-02-13T13:03:32;102358.96;;;10.18;67.04
62946;BME280;52164;52.212;-1.010;2023-02-13T13:04:07;102358.38;;;10.28;66.96
62946;BME280;52164;52.212;-1.010;2023-02-13T13:06:45;102350.61;;;10.36;66.81
62946;BME280;52164;52.212;-1.010;2023-02-13T13:14:15;102341.24;;;10.57;66.55
62946;BME280;52164;52.212;-1.010;2023-02-13T13:16:52;102337.90;;;10.65;66.65
62946;BME280;52164;52.212;-1.010;2023-02-13T13:21:49;102336.16;;;10.73;66.22
62946;BME280;52164;52.212;-1.010;2023-02-13T13:26:46;102323.27;;;10.84;65.77
62946;BME280;52164;52.212;-1.010;2023-02-13T13:27:29;102319.76;;;10.87;65.39
62946;BME280;52164;52.212;-1.010;2023-02-13T13:29:58;102314.52;;;10.91;65.30
62946;BME280;52164;52.212;-1.010;2023-02-13T13:32:25;102309.34;;;10.98;65.38
62946;BME280;52164;52.212;-1.010;2023-02-13T13:34:51;102302.52;;;11.02;65.41
62946;BME280;52164;52.212;-1.010;2023-02-13T13:39:47;102301.66;;;11.12;65.17
62946;BME280;52164;52.212;-1.010;2023-02-13T13:42:19;102298.17;;;11.15;64.70
62946;BME280;52164;52.212;-1.010;2023-02-13T13:47:20;102293.96;;;11.25;64.92
62946;BME280;52164;52.212;-1.010;2023-02-13T13:49:50;102291.98;;;11.31;64.34